createdAt,value
2023-04-06T00:00:41.304Z,23.70
2023-04-06T00:07:23.554Z,18.23
2023-04-06T00:14:24.596Z,16.75
2023-04-06T00:21:26.860Z,20.40
2023-04-06T00:28:27.911Z,19.00
2023-04-06T00:35:28.814Z,20.80
2023-04-06T00:42:14.614Z,17.27
2023-04-06T00:49:15.587Z,18.47
2023-04-06T00:55:57.760Z,14.65
2023-04-06T01:02:59.557Z,8.98
2023-04-06T01:09:49.980Z,12.98
2023-04-06T01:17:01.680Z,11.95
2023-04-06T01:23:47.859Z,12.57
2023-04-06T01:30:54.797Z,14.32
2023-04-06T01:38:14.715Z,11.93
2023-04-06T01:44:57.000Z,13.57
2023-04-06T01:51:40.156Z,17.10
2023-04-06T01:58:44.809Z,15.98
2023-04-06T02:05:49.335Z,17.20
2023-04-06T02:13:02.035Z,26.65
2023-04-06T02:20:03.334Z,22.10
2023-04-06T02:27:04.389Z,25.15
2023-04-06T02:34:05.499Z,30.63
2023-04-06T02:40:49.212Z,24.65
2023-04-06T02:47:36.205Z,24.52
2023-04-06T02:54:38.084Z,22.27
2023-04-06T03:01:21.258Z,24.88
2023-04-06T03:08:09.783Z,20.70
2023-04-06T03:14:57.370Z,25.52
2023-04-06T03:21:39.794Z,25.20
2023-04-06T03:28:42.116Z,27.27
2023-04-06T03:35:25.652Z,30.80
2023-04-06T03:42:27.759Z,24.52
2023-04-06T03:49:34.943Z,25.00
2023-04-06T03:56:17.609Z,26.10
2023-04-06T04:03:00.485Z,22.35
2023-04-06T04:09:42.707Z,25.77
2023-04-06T04:16:43.941Z,23.58
2023-04-06T04:23:26.175Z,20.55
2023-04-06T04:30:27.228Z,24.75
2023-04-06T04:37:28.192Z,26.65
2023-04-06T04:44:12.106Z,25.73
2023-04-06T04:51:12.978Z,24.60
2023-04-06T04:58:36.943Z,22.17
2023-04-06T05:05:38.022Z,28.10
2023-04-06T05:12:22.299Z,22.90
2023-04-06T05:19:41.313Z,28.95
2023-04-06T05:26:42.772Z,26.08
2023-04-06T05:33:34.345Z,26.83
2023-04-06T05:40:45.601Z,24.50
2023-04-06T05:47:50.225Z,28.00
2023-04-06T05:54:40.565Z,19.67
2023-04-06T06:01:22.904Z,18.20
2023-04-06T06:08:24.046Z,17.75
2023-04-06T06:15:08.379Z,25.02
2023-04-06T06:21:54.752Z,19.33
2023-04-06T06:28:56.258Z,22.65
2023-04-06T06:35:58.039Z,20.40
2023-04-06T06:42:58.786Z,19.08
2023-04-06T06:50:08.434Z,20.80
2023-04-06T06:57:09.324Z,17.13
2023-04-06T07:04:10.531Z,16.63
2023-04-06T07:11:11.707Z,14.38
2023-04-06T07:18:13.302Z,10.00
2023-04-06T07:25:14.080Z,16.38
2023-04-06T07:32:15.912Z,12.07
2023-04-06T07:39:16.811Z,17.42
2023-04-06T07:46:17.821Z,11.40
2023-04-06T07:53:19.198Z,11.52
2023-04-06T08:00:21.931Z,8.52
2023-04-06T08:07:22.852Z,10.73
2023-04-06T08:14:23.873Z,9.60
2023-04-06T08:21:06.228Z,12.13
2023-04-06T08:27:48.437Z,11.93
2023-04-06T08:34:30.788Z,13.68
2023-04-06T08:41:14.760Z,10.60
2023-04-06T08:48:00.055Z,7.82
2023-04-06T08:54:42.310Z,10.48
2023-04-06T09:01:28.100Z,8.40
2023-04-06T09:08:10.295Z,8.13
2023-04-06T09:14:52.588Z,11.25
2023-04-06T09:21:35.304Z,9.30
2023-04-06T09:28:17.619Z,11.15
2023-04-06T09:35:09.900Z,12.15
2023-04-06T09:41:55.533Z,19.05
2023-04-06T09:48:38.914Z,9.68
2023-04-06T09:55:36.255Z,11.07
2023-04-06T10:02:46.876Z,11.07
2023-04-06T10:09:36.569Z,6.72
2023-04-06T10:16:19.318Z,9.25
2023-04-06T10:23:27.798Z,10.48
2023-04-06T10:30:10.190Z,11.63
2023-04-06T10:36:52.413Z,12.07
2023-04-06T10:43:40.140Z,11.65
2023-04-06T10:50:23.366Z,10.55
2023-04-06T10:57:05.610Z,9.88
2023-04-06T11:03:50.964Z,10.70
2023-04-06T11:17:15.451Z,8.93
2023-04-06T11:24:22.531Z,8.13
2023-04-06T11:31:04.839Z,11.60
2023-04-06T11:37:47.126Z,4.45
2023-04-06T11:44:41.022Z,3.97
2023-04-06T11:51:24.956Z,5.25
2023-04-06T11:58:08.132Z,6.30
2023-04-06T12:04:50.732Z,28.02
2023-04-06T12:11:33.028Z,7.65
2023-04-06T12:18:15.587Z,6.05
2023-04-06T12:24:57.799Z,6.55
2023-04-06T12:31:41.931Z,5.75
2023-04-06T12:38:24.231Z,2.57
2023-04-06T12:45:07.464Z,9.35
2023-04-06T12:51:49.818Z,2.97
2023-04-06T12:58:32.290Z,20.55
2023-04-06T13:05:19.962Z,3.88
2023-04-06T13:12:02.812Z,6.35
2023-04-06T13:18:45.009Z,5.35
2023-04-06T13:25:27.318Z,2.90
2023-04-06T13:32:11.357Z,5.50
2023-04-06T13:38:54.361Z,3.13
2023-04-06T13:45:36.722Z,6.70
2023-04-06T13:52:19.525Z,3.88
2023-04-06T13:59:01.694Z,5.97
2023-04-06T14:05:44.077Z,4.82
2023-04-06T14:12:26.253Z,3.45
2023-04-06T14:19:08.513Z,4.63
2023-04-06T14:25:51.328Z,8.00
2023-04-06T14:32:33.567Z,5.47
2023-04-06T14:39:15.973Z,10.50
2023-04-06T14:46:02.298Z,6.72
2023-04-06T14:52:44.469Z,7.03
2023-04-06T14:59:26.713Z,4.13
2023-04-06T15:06:16.199Z,7.93
2023-04-06T15:12:58.456Z,5.35
2023-04-06T15:19:40.838Z,3.20
2023-04-06T15:26:22.999Z,7.13
2023-04-06T15:33:08.094Z,6.18
2023-04-06T15:39:50.305Z,4.32
2023-04-06T15:46:32.683Z,31.50
2023-04-06T15:53:14.842Z,48.10
2023-04-06T15:59:58.521Z,7.93
2023-04-06T16:06:41.310Z,4.80
2023-04-06T16:13:24.361Z,11.80
2023-04-06T16:20:07.827Z,6.78
2023-04-06T16:26:50.881Z,24.27
2023-04-06T16:33:33.166Z,18.40
2023-04-06T16:40:16.140Z,14.27
2023-04-06T16:46:58.716Z,7.47
2023-04-06T16:53:41.029Z,5.72
2023-04-06T17:00:23.684Z,10.43
2023-04-06T17:07:06.142Z,10.00
2023-04-06T17:13:50.368Z,10.25
2023-04-06T17:20:34.774Z,16.27
2023-04-06T17:27:16.979Z,8.57
2023-04-06T17:33:59.900Z,10.85
2023-04-06T17:40:42.215Z,15.52
2023-04-06T17:47:25.794Z,32.83
2023-04-06T17:54:08.001Z,14.38
2023-04-06T18:00:50.284Z,8.65
2023-04-06T18:07:32.743Z,6.47
2023-04-06T18:14:16.133Z,11.90
2023-04-06T18:20:58.384Z,11.18
2023-04-06T18:27:40.649Z,9.68
2023-04-06T18:34:23.240Z,8.23
2023-04-06T18:41:05.783Z,7.53
2023-04-06T18:47:47.952Z,15.05
2023-04-06T18:54:30.316Z,13.90
2023-04-06T19:01:28.794Z,21.45
2023-04-06T19:08:12.529Z,8.98
2023-04-06T19:14:54.716Z,11.05
2023-04-06T19:21:37.411Z,10.95
2023-04-06T19:28:19.602Z,11.85
2023-04-06T19:35:06.294Z,9.55
2023-04-06T19:41:49.531Z,17.05
2023-04-06T19:48:33.919Z,14.38
2023-04-06T19:55:16.276Z,18.30
2023-04-06T20:01:58.604Z,15.70
2023-04-06T20:08:44.535Z,9.68
2023-04-06T20:15:27.070Z,9.98
2023-04-06T20:22:09.255Z,6.53
2023-04-06T20:28:51.490Z,7.07
2023-04-06T20:35:34.994Z,8.88
2023-04-06T20:42:17.862Z,9.98
2023-04-06T20:49:00.044Z,10.52
2023-04-06T20:55:42.888Z,12.60
2023-04-06T21:02:26.220Z,12.45
2023-04-06T21:09:08.764Z,8.82
2023-04-06T21:15:51.743Z,11.13
2023-04-06T21:22:34.390Z,9.85
2023-04-06T21:29:16.706Z,10.30
2023-04-06T21:35:58.881Z,6.63
2023-04-06T21:42:41.030Z,11.55
2023-04-06T21:49:23.216Z,12.23
2023-04-06T21:56:05.764Z,12.88
2023-04-06T22:02:48.220Z,15.02
2023-04-06T22:09:31.553Z,13.15
2023-04-06T22:16:14.727Z,9.90
2023-04-06T22:22:57.324Z,14.65
2023-04-06T22:29:39.661Z,12.88
2023-04-06T22:36:21.963Z,10.25
2023-04-06T22:43:04.246Z,15.02
2023-04-06T22:49:46.605Z,15.48
2023-04-06T22:56:28.770Z,17.30
2023-04-06T23:03:11.509Z,15.07
2023-04-06T23:09:53.836Z,17.77
2023-04-06T23:16:36.506Z,19.38
2023-04-06T23:23:18.648Z,20.80
2023-04-06T23:30:00.885Z,19.52
2023-04-06T23:36:43.169Z,20.17
2023-04-06T23:43:25.379Z,22.25
2023-04-06T23:50:08.301Z,19.55
2023-04-06T23:56:52.022Z,27.63
